createdAt,value
2023-02-22T00:00:19.845Z,23.07
2023-02-22T00:02:32.641Z,24.87
2023-02-22T00:04:35.731Z,29.40
2023-02-22T00:06:38.134Z,24.70
2023-02-22T00:08:40.539Z,24.40
2023-02-22T00:10:43.087Z,23.20
2023-02-22T00:12:45.053Z,23.00
2023-02-22T00:14:47.140Z,21.57
2023-02-22T00:16:50.767Z,17.43
2023-02-22T00:18:55.087Z,18.97
2023-02-22T00:21:02.194Z,19.10
2023-02-22T00:23:07.263Z,17.70
2023-02-22T00:25:10.245Z,17.40
2023-02-22T00:27:12.215Z,16.23
2023-02-22T00:29:14.312Z,13.63
2023-02-22T00:31:17.099Z,15.90
2023-02-22T00:33:22.694Z,12.57
2023-02-22T00:35:28.592Z,13.40
2023-02-22T00:37:33.678Z,13.33
2023-02-22T00:39:35.489Z,16.77
2023-02-22T00:41:37.692Z,15.33
2023-02-22T00:43:39.756Z,14.90
2023-02-22T00:45:42.740Z,14.90
2023-02-22T00:47:44.903Z,13.00
2023-02-22T00:49:49.953Z,11.93
2023-02-22T00:51:52.433Z,13.13
2023-02-22T00:53:54.533Z,11.20
2023-02-22T00:55:56.705Z,11.87
2023-02-22T00:58:00.148Z,11.33
2023-02-22T01:00:12.814Z,11.03
2023-02-22T01:02:14.962Z,9.77
2023-02-22T01:04:18.703Z,10.10
2023-02-22T01:06:21.107Z,9.73
2023-02-22T01:08:25.294Z,8.30
2023-02-22T01:10:29.910Z,8.90
2023-02-22T01:12:32.136Z,10.70
2023-02-22T01:14:34.305Z,11.53
2023-02-22T01:16:37.054Z,6.83
2023-02-22T01:18:39.387Z,8.83
2023-02-22T01:20:41.625Z,11.73
2023-02-22T01:22:47.408Z,8.67
2023-02-22T01:24:51.113Z,9.37
2023-02-22T01:26:53.418Z,9.20
2023-02-22T01:28:55.596Z,7.90
2023-02-22T01:30:57.984Z,8.60
2023-02-22T01:33:04.087Z,7.97
2023-02-22T01:35:10.155Z,7.13
2023-02-22T01:37:13.800Z,7.10
2023-02-22T01:39:18.036Z,6.67
2023-02-22T01:41:20.625Z,8.50
2023-02-22T01:43:31.275Z,9.43
2023-02-22T01:45:33.310Z,8.07
2023-02-22T01:47:35.364Z,7.53
2023-02-22T01:49:43.370Z,7.07
2023-02-22T01:51:49.353Z,7.27
2023-02-22T01:53:54.279Z,8.63
2023-02-22T01:55:57.934Z,6.37
2023-02-22T01:58:00.328Z,7.27
2023-02-22T02:00:11.141Z,7.43
2023-02-22T02:02:19.436Z,7.90
2023-02-22T02:04:25.677Z,8.70
2023-02-22T02:06:33.899Z,6.37
2023-02-22T02:08:51.710Z,7.43
2023-02-22T02:10:57.876Z,7.87
2023-02-22T02:13:00.173Z,8.53
2023-02-22T02:15:29.147Z,9.53
2023-02-22T02:17:31.106Z,7.17
2023-02-22T02:19:57.330Z,6.27
2023-02-22T02:22:17.587Z,8.90
2023-02-22T02:24:33.723Z,8.47
2023-02-22T02:27:06.534Z,8.23
2023-02-22T02:29:44.378Z,9.30
2023-02-22T02:32:12.226Z,8.73
2023-02-22T02:34:17.197Z,9.53
2023-02-22T02:36:36.420Z,6.40
2023-02-22T02:39:01.813Z,7.43
2023-02-22T02:41:13.532Z,9.63
2023-02-22T02:43:27.963Z,8.80
2023-02-22T02:45:40.234Z,10.73
2023-02-22T02:47:49.710Z,12.37
2023-02-22T02:50:08.346Z,11.80
2023-02-22T02:52:13.430Z,13.40
2023-02-22T02:54:16.047Z,10.23
2023-02-22T02:56:19.047Z,9.20
2023-02-22T02:58:24.034Z,10.03
2023-02-22T03:00:39.511Z,9.57
2023-02-22T03:03:14.007Z,9.33
2023-02-22T03:05:24.771Z,12.17
2023-02-22T03:07:40.457Z,18.33
2023-02-22T03:10:01.279Z,25.13
2023-02-22T03:12:38.117Z,28.23
2023-02-22T03:15:05.293Z,32.60
2023-02-22T03:17:30.346Z,32.80
2023-02-22T03:19:49.016Z,35.00
2023-02-22T03:21:56.859Z,37.60
2023-02-22T03:24:10.071Z,52.73
2023-02-22T03:26:19.731Z,58.53
2023-02-22T03:28:29.510Z,58.93
2023-02-22T03:30:53.380Z,64.37
2023-02-22T03:33:40.590Z,69.63
2023-02-22T03:35:56.978Z,66.70
2023-02-22T03:38:04.155Z,55.13
2023-02-22T03:40:16.899Z,50.33
2023-02-22T03:42:26.419Z,44.50
2023-02-22T03:44:31.323Z,38.10
2023-02-22T03:46:36.218Z,34.60
2023-02-22T03:48:58.050Z,30.00
2023-02-22T03:51:06.103Z,23.30
2023-02-22T03:53:10.717Z,22.70
2023-02-22T03:55:17.851Z,21.23
2023-02-22T03:57:36.465Z,22.57
2023-02-22T03:59:41.204Z,19.77
2023-02-22T04:01:43.544Z,20.00
2023-02-22T04:03:46.073Z,18.90
2023-02-22T04:05:49.840Z,19.53
2023-02-22T04:07:56.960Z,20.27
2023-02-22T04:09:59.164Z,24.33
2023-02-22T04:12:01.290Z,23.27
2023-02-22T04:14:06.185Z,27.97
2023-02-22T04:16:08.266Z,33.20
2023-02-22T04:18:11.316Z,39.73
2023-02-22T04:20:14.512Z,55.23
2023-02-22T04:22:24.148Z,50.80
2023-02-22T04:24:30.434Z,41.40
2023-02-22T04:26:32.906Z,40.83
2023-02-22T04:28:37.077Z,39.63
2023-02-22T04:30:49.019Z,44.67
2023-02-22T04:32:53.087Z,51.93
2023-02-22T04:34:57.357Z,69.37
2023-02-22T04:37:00.138Z,71.07
2023-02-22T04:39:02.693Z,56.63
2023-02-22T04:41:05.850Z,50.90
2023-02-22T04:43:08.302Z,42.00
2023-02-22T04:45:13.724Z,37.50
2023-02-22T04:47:15.875Z,34.43
2023-02-22T04:49:17.784Z,31.03
2023-02-22T04:51:21.768Z,30.10
2023-02-22T04:53:38.281Z,29.80
2023-02-22T04:55:41.864Z,32.83
2023-02-22T04:57:44.227Z,33.97
2023-02-22T04:59:46.545Z,38.43
2023-02-22T05:01:49.539Z,38.37
2023-02-22T05:03:51.693Z,44.17
2023-02-22T05:05:53.684Z,44.73
2023-02-22T05:07:55.943Z,43.37
2023-02-22T05:09:57.993Z,37.57
2023-02-22T05:12:00.310Z,30.57
2023-02-22T05:14:02.301Z,30.73
2023-02-22T05:16:04.860Z,22.40
2023-02-22T05:18:06.956Z,18.80
2023-02-22T05:20:19.527Z,16.93
2023-02-22T05:22:21.732Z,19.17
2023-02-22T05:24:23.908Z,13.17
2023-02-22T05:26:27.453Z,15.07
2023-02-22T05:28:30.032Z,31.00
2023-02-22T05:30:34.594Z,29.83
2023-02-22T05:32:36.704Z,21.83
2023-02-22T05:34:39.369Z,16.37
2023-02-22T05:36:41.780Z,16.23
2023-02-22T05:38:44.901Z,11.30
2023-02-22T05:40:47.181Z,12.77
2023-02-22T05:42:51.178Z,13.73
2023-02-22T05:44:53.437Z,14.70
2023-02-22T05:46:55.489Z,11.77
2023-02-22T05:48:59.872Z,12.57
2023-02-22T05:51:01.917Z,13.43
2023-02-22T05:53:05.691Z,14.87
2023-02-22T05:55:09.658Z,15.43
2023-02-22T05:57:11.837Z,15.37
2023-02-22T05:59:13.880Z,14.03
2023-02-22T06:01:16.545Z,13.97
2023-02-22T06:03:19.000Z,18.23
2023-02-22T06:05:22.328Z,21.73
2023-02-22T06:07:24.552Z,18.83
2023-02-22T06:09:26.666Z,22.33
2023-02-22T06:11:28.822Z,26.70
2023-02-22T06:13:31.655Z,56.70
2023-02-22T06:15:33.954Z,83.40
2023-02-22T06:17:36.712Z,71.23
2023-02-22T06:19:39.235Z,34.00
2023-02-22T06:21:52.143Z,29.13
2023-02-22T06:23:54.412Z,15.87
2023-02-22T06:25:56.349Z,14.03
2023-02-22T06:27:59.945Z,19.07
2023-02-22T06:30:03.177Z,15.53
2023-02-22T06:32:05.446Z,14.17
2023-02-22T06:34:07.554Z,16.53
2023-02-22T06:36:09.908Z,17.40
2023-02-22T06:38:11.947Z,12.33
2023-02-22T06:40:15.109Z,18.27
2023-02-22T06:42:17.247Z,15.63
2023-02-22T06:44:19.386Z,15.67
2023-02-22T06:46:21.993Z,14.57
2023-02-22T06:48:24.142Z,16.03
2023-02-22T06:50:30.486Z,13.50
2023-02-22T06:52:32.612Z,14.83
2023-02-22T06:54:34.661Z,12.60
2023-02-22T06:56:36.829Z,14.47
2023-02-22T06:58:38.848Z,13.87
2023-02-22T07:00:41.617Z,17.93
2023-02-22T07:02:43.924Z,15.97
2023-02-22T07:04:46.156Z,17.80
2023-02-22T07:06:49.877Z,15.90
2023-02-22T07:08:52.030Z,16.77
2023-02-22T07:10:54.322Z,14.67
2023-02-22T07:12:56.695Z,15.50
2023-02-22T07:14:58.739Z,16.00
2023-02-22T07:17:01.064Z,15.53
2023-02-22T07:19:03.397Z,16.07
2023-02-22T07:21:06.477Z,11.93
2023-02-22T07:23:09.119Z,10.27
2023-02-22T07:25:14.357Z,16.10
2023-02-22T07:27:17.352Z,13.77
2023-02-22T07:29:19.504Z,11.83
2023-02-22T07:31:22.055Z,11.97
2023-02-22T07:33:24.270Z,15.97
2023-02-22T07:35:31.680Z,13.33
2023-02-22T07:37:33.978Z,12.43
2023-02-22T07:39:38.064Z,12.23
2023-02-22T07:41:40.491Z,15.27
2023-02-22T07:43:56.625Z,14.27
2023-02-22T07:46:00.701Z,13.73
2023-02-22T07:48:04.575Z,10.67
2023-02-22T07:50:06.835Z,8.97
2023-02-22T07:52:08.886Z,11.88
2023-02-22T07:54:11.358Z,12.17
2023-02-22T07:56:13.404Z,23.30
2023-02-22T07:58:15.985Z,140.80
2023-02-22T08:00:24.399Z,104.75
2023-02-22T08:02:26.812Z,53.67
2023-02-22T08:04:31.814Z,32.47
2023-02-22T08:06:34.252Z,27.57
2023-02-22T08:08:36.494Z,29.10
2023-02-22T08:10:38.518Z,19.40
2023-02-22T08:12:41.392Z,25.92
2023-02-22T08:14:43.352Z,22.63
2023-02-22T08:16:45.439Z,19.50
2023-02-22T08:18:47.731Z,21.23
2023-02-22T08:20:52.243Z,13.15
2023-02-22T08:22:57.112Z,12.57
2023-02-22T08:24:59.218Z,19.93
2023-02-22T08:27:01.779Z,22.88
2023-02-22T08:29:03.949Z,22.08
2023-02-22T08:31:07.823Z,23.75
2023-02-22T08:33:11.165Z,21.55
2023-02-22T08:35:14.782Z,25.33
2023-02-22T08:37:18.257Z,25.23
2023-02-22T08:39:20.610Z,29.13
2023-02-22T08:41:22.757Z,23.60
2023-02-22T08:43:24.983Z,17.85
2023-02-22T08:45:27.457Z,17.70
2023-02-22T08:47:29.563Z,27.98
2023-02-22T08:49:32.227Z,17.52
2023-02-22T08:51:37.463Z,29.45
2023-02-22T08:53:39.569Z,35.88
2023-02-22T08:55:42.270Z,22.83
2023-02-22T08:57:44.390Z,21.27
2023-02-22T08:59:46.527Z,16.83
2023-02-22T09:01:48.736Z,19.08
2023-02-22T09:03:52.149Z,22.45
2023-02-22T09:05:54.777Z,23.33
2023-02-22T09:07:57.349Z,16.75
2023-02-22T09:09:59.602Z,17.05
2023-02-22T09:12:02.558Z,17.65
2023-02-22T09:14:04.855Z,17.10
2023-02-22T09:16:07.277Z,17.85
2023-02-22T09:18:12.525Z,14.38
2023-02-22T09:20:18.150Z,13.07
2023-02-22T09:22:20.080Z,21.33
2023-02-22T09:24:23.087Z,16.50
2023-02-22T09:26:25.174Z,20.98
2023-02-22T09:28:29.192Z,14.18
2023-02-22T09:30:36.155Z,15.25
2023-02-22T09:32:38.534Z,14.57
2023-02-22T09:34:45.987Z,15.77
2023-02-22T09:36:49.941Z,22.77
2023-02-22T09:38:52.646Z,17.17
2023-02-22T09:41:14.318Z,13.48
2023-02-22T09:43:50.516Z,14.05
2023-02-22T09:45:56.059Z,17.42
2023-02-22T09:48:15.191Z,17.92
2023-02-22T09:50:28.830Z,14.98
2023-02-22T09:52:41.587Z,14.00
2023-02-22T09:54:52.287Z,13.75
2023-02-22T09:56:58.604Z,13.75
2023-02-22T09:59:07.290Z,15.25
2023-02-22T10:01:29.770Z,11.10
2023-02-22T10:03:40.647Z,10.48
2023-02-22T10:05:48.382Z,19.33
2023-02-22T10:08:06.158Z,21.58
2023-02-22T10:10:17.506Z,21.45
2023-02-22T10:12:30.243Z,21.92
2023-02-22T10:14:49.109Z,19.13
2023-02-22T10:17:15.747Z,20.27
2023-02-22T10:19:41.377Z,16.67
2023-02-22T10:22:23.044Z,19.17
2023-02-22T10:24:57.224Z,23.13
2023-02-22T10:27:01.105Z,22.23
2023-02-22T10:29:07.255Z,36.90
2023-02-22T10:31:17.347Z,28.15
2023-02-22T10:33:27.257Z,30.33
2023-02-22T10:35:41.414Z,51.85
2023-02-22T10:37:44.512Z,84.22
2023-02-22T10:39:49.881Z,54.60
2023-02-22T10:41:56.000Z,35.78
2023-02-22T10:43:58.971Z,21.63
2023-02-22T10:46:05.815Z,26.08
2023-02-22T10:48:13.096Z,19.10
2023-02-22T10:50:15.939Z,22.40
2023-02-22T10:52:27.458Z,21.77
2023-02-22T10:54:40.562Z,35.25
2023-02-22T10:56:49.106Z,44.20
2023-02-22T10:58:57.595Z,39.05
2023-02-22T11:00:59.947Z,41.42
2023-02-22T11:03:06.158Z,40.35
2023-02-22T11:05:43.344Z,49.40
2023-02-22T11:07:45.349Z,44.05
2023-02-22T11:10:12.017Z,42.10
2023-02-22T11:12:20.038Z,70.05
2023-02-22T11:14:31.311Z,46.78
2023-02-22T11:16:38.304Z,63.75
2023-02-22T11:18:40.538Z,44.72
2023-02-22T11:20:42.867Z,36.45
2023-02-22T11:22:44.968Z,28.80
2023-02-22T11:24:50.983Z,19.10
2023-02-22T11:27:01.716Z,20.98
2023-02-22T11:29:19.337Z,13.63
2023-02-22T11:31:27.524Z,11.85
2023-02-22T11:33:30.663Z,11.05
2023-02-22T11:35:37.404Z,11.75
2023-02-22T11:37:39.452Z,16.88
2023-02-22T11:39:43.876Z,13.40
2023-02-22T11:41:49.395Z,15.57
2023-02-22T11:43:52.792Z,20.67
2023-02-22T11:46:12.186Z,12.63
2023-02-22T11:48:21.380Z,11.23
2023-02-22T11:50:38.689Z,14.60
2023-02-22T11:52:50.969Z,15.25
2023-02-22T11:55:29.743Z,14.88
2023-02-22T11:58:21.300Z,9.38
2023-02-22T12:00:35.879Z,12.10
2023-02-22T12:03:13.525Z,17.20
2023-02-22T12:06:02.400Z,12.55
2023-02-22T12:08:20.779Z,9.20
2023-02-22T12:10:38.776Z,16.88
2023-02-22T12:12:54.924Z,20.95
2023-02-22T12:15:09.854Z,18.58
2023-02-22T12:17:23.830Z,25.23
2023-02-22T12:19:36.315Z,25.92
2023-02-22T12:21:45.354Z,33.38
2023-02-22T12:24:05.775Z,38.15
2023-02-22T12:26:25.786Z,19.67
2023-02-22T12:28:27.778Z,13.85
2023-02-22T12:30:36.108Z,16.08
2023-02-22T12:32:44.605Z,16.42
2023-02-22T12:34:54.961Z,13.32
2023-02-22T12:37:04.804Z,15.15
2023-02-22T12:39:25.640Z,11.77
2023-02-22T12:41:39.186Z,14.63
2023-02-22T12:43:41.869Z,12.60
2023-02-22T12:46:06.956Z,11.98
2023-02-22T12:48:36.575Z,11.13
2023-02-22T12:50:39.010Z,26.58
2023-02-22T12:52:53.960Z,36.08
2023-02-22T12:55:12.463Z,28.60
2023-02-22T12:57:24.964Z,21.33
2023-02-22T12:59:34.071Z,14.60
2023-02-22T13:01:44.507Z,12.30
2023-02-22T13:03:49.417Z,14.18
2023-02-22T13:06:28.545Z,13.30
2023-02-22T13:08:41.018Z,138.48
2023-02-22T13:11:21.601Z,98.22
2023-02-22T13:13:44.118Z,49.63
2023-02-22T13:15:55.087Z,31.25
2023-02-22T13:18:17.058Z,19.63
2023-02-22T13:20:36.642Z,19.70
2023-02-22T13:22:48.122Z,19.48
2023-02-22T13:25:14.495Z,15.65
2023-02-22T13:27:23.232Z,21.38
2023-02-22T13:29:33.889Z,22.17
2023-02-22T13:31:54.859Z,15.70
2023-02-22T13:34:16.687Z,18.00
2023-02-22T13:36:38.933Z,20.42
2023-02-22T13:38:49.723Z,25.02
2023-02-22T13:41:00.936Z,25.30
2023-02-22T13:43:34.176Z,19.88
2023-02-22T13:46:02.482Z,29.77
2023-02-22T13:48:35.405Z,18.30
2023-02-22T13:51:06.885Z,10.30
2023-02-22T13:53:17.312Z,12.13
2023-02-22T13:55:41.250Z,13.15
2023-02-22T13:57:50.051Z,14.20
2023-02-22T14:00:40.048Z,16.13
2023-02-22T14:03:14.326Z,11.23
2023-02-22T14:05:41.681Z,32.30
2023-02-22T14:07:48.733Z,24.98
2023-02-22T14:09:56.299Z,14.32
2023-02-22T14:11:58.616Z,25.48
2023-02-22T14:14:03.395Z,29.27
2023-02-22T14:16:08.629Z,39.65
2023-02-22T14:18:17.271Z,38.63
2023-02-22T14:20:37.041Z,36.70
2023-02-22T14:22:39.445Z,35.00
2023-02-22T14:24:51.306Z,32.13
2023-02-22T14:27:02.146Z,38.38
2023-02-22T14:29:08.143Z,32.80
2023-02-22T14:31:33.310Z,36.05
2023-02-22T14:33:56.463Z,44.88
2023-02-22T14:35:58.759Z,49.90
2023-02-22T14:38:02.610Z,46.90
2023-02-22T14:40:18.797Z,37.38
2023-02-22T14:42:41.007Z,39.65
2023-02-22T14:45:01.390Z,51.05
2023-02-22T14:47:06.900Z,50.17
2023-02-22T14:49:16.916Z,55.10
2023-02-22T14:51:36.020Z,54.33
2023-02-22T14:53:44.572Z,58.83
2023-02-22T14:56:08.879Z,50.83
2023-02-22T14:58:19.053Z,45.95
2023-02-22T15:00:30.986Z,37.80
2023-02-22T15:02:41.674Z,46.92
2023-02-22T15:04:52.109Z,56.75
2023-02-22T15:06:59.071Z,53.47
2023-02-22T15:09:14.932Z,53.10
2023-02-22T15:11:31.211Z,44.08
2023-02-22T15:13:33.619Z,45.47
2023-02-22T15:15:49.351Z,47.58
2023-02-22T15:17:58.720Z,47.50
2023-02-22T15:20:01.252Z,43.13
2023-02-22T15:22:04.231Z,35.42
2023-02-22T15:24:08.253Z,37.08
2023-02-22T15:26:29.176Z,41.00
2023-02-22T15:28:32.000Z,54.83
2023-02-22T15:30:35.878Z,58.22
2023-02-22T15:32:53.264Z,56.58
2023-02-22T15:35:37.792Z,63.70
2023-02-22T15:37:40.226Z,62.45
2023-02-22T15:39:44.200Z,56.05
2023-02-22T15:41:46.696Z,57.17
2023-02-22T15:44:23.182Z,69.85
2023-02-22T15:46:26.347Z,85.55
2023-02-22T15:48:31.959Z,71.05
2023-02-22T15:50:35.673Z,72.68
2023-02-22T15:52:37.814Z,76.65
2023-02-22T15:54:50.525Z,67.72
2023-02-22T15:56:57.035Z,66.97
2023-02-22T15:59:20.848Z,82.15
2023-02-22T16:01:22.827Z,84.45
2023-02-22T16:03:29.559Z,87.07
2023-02-22T16:05:55.746Z,87.60
2023-02-22T16:07:58.588Z,73.80
2023-02-22T16:10:08.238Z,65.55
2023-02-22T16:12:23.181Z,71.38
2023-02-22T16:14:27.098Z,75.70
2023-02-22T16:16:41.820Z,89.35
2023-02-22T16:18:44.275Z,107.65
2023-02-22T16:20:57.605Z,100.90
2023-02-22T16:22:59.741Z,92.88
2023-02-22T16:25:18.912Z,94.43
2023-02-22T16:27:24.814Z,80.57
2023-02-22T16:29:27.146Z,72.93
2023-02-22T16:31:34.035Z,61.38
2023-02-22T16:33:39.995Z,63.05
2023-02-22T16:35:52.161Z,62.75
2023-02-22T16:38:02.868Z,62.75
2023-02-22T16:40:14.084Z,60.95
2023-02-22T16:42:22.888Z,70.80
2023-02-22T16:44:25.887Z,59.00
2023-02-22T16:46:28.057Z,56.03
2023-02-22T16:48:38.353Z,57.55
2023-02-22T16:50:40.957Z,58.25
2023-02-22T16:52:43.159Z,48.58
2023-02-22T16:54:46.444Z,61.25
2023-02-22T16:56:48.681Z,65.35
2023-02-22T16:58:50.923Z,72.95
2023-02-22T17:00:52.948Z,83.00
2023-02-22T17:02:55.011Z,87.85
2023-02-22T17:04:57.388Z,77.43
2023-02-22T17:07:02.582Z,78.15
2023-02-22T17:09:05.921Z,82.55
2023-02-22T17:11:10.333Z,76.20
2023-02-22T17:13:23.601Z,67.35
2023-02-22T17:15:34.825Z,58.90
2023-02-22T17:17:36.878Z,57.70
2023-02-22T17:19:39.203Z,65.25
2023-02-22T17:21:41.349Z,58.95
2023-02-22T17:23:46.265Z,53.28
2023-02-22T17:25:53.747Z,60.80
2023-02-22T17:27:56.123Z,60.67
2023-02-22T17:29:58.086Z,72.20
2023-02-22T17:32:00.424Z,89.13
2023-02-22T17:34:05.091Z,86.45
2023-02-22T17:36:07.607Z,82.22
2023-02-22T17:38:10.546Z,75.90
2023-02-22T17:40:14.870Z,80.93
2023-02-22T17:42:17.015Z,72.07
2023-02-22T17:44:19.111Z,62.78
2023-02-22T17:46:22.496Z,95.13
2023-02-22T17:48:26.160Z,94.75
2023-02-22T17:50:28.347Z,86.93
2023-02-22T17:52:30.582Z,78.85
2023-02-22T17:54:34.390Z,65.85
2023-02-22T17:56:36.837Z,55.15
2023-02-22T17:58:39.788Z,47.72
2023-02-22T18:00:45.651Z,54.50
2023-02-22T18:02:48.155Z,47.90
2023-02-22T18:04:50.258Z,32.72
2023-02-22T18:06:52.901Z,24.67
2023-02-22T18:08:57.736Z,25.23
2023-02-22T18:11:05.319Z,21.13
2023-02-22T18:13:07.517Z,20.10
2023-02-22T18:15:17.365Z,17.45
2023-02-22T18:17:19.371Z,16.40
2023-02-22T18:19:23.357Z,15.80
2023-02-22T18:21:27.003Z,22.95
2023-02-22T18:23:31.915Z,25.13
2023-02-22T18:25:36.638Z,26.40
2023-02-22T18:27:38.852Z,22.40
2023-02-22T18:29:42.285Z,32.50
2023-02-22T18:31:45.617Z,64.00
2023-02-22T18:33:50.491Z,57.28
2023-02-22T18:35:52.785Z,33.92
2023-02-22T18:37:54.778Z,28.38
2023-02-22T18:39:58.189Z,25.75
2023-02-22T18:42:00.241Z,22.02
2023-02-22T18:44:03.445Z,16.10
2023-02-22T18:46:11.561Z,21.60
2023-02-22T18:48:13.604Z,17.40
2023-02-22T18:50:19.245Z,22.98
2023-02-22T18:52:24.140Z,19.98
2023-02-22T18:54:26.769Z,23.70
2023-02-22T18:56:30.389Z,46.88
2023-02-22T18:58:32.957Z,45.25
2023-02-22T19:00:38.535Z,44.22
2023-02-22T19:02:43.661Z,33.55
2023-02-22T19:04:45.676Z,37.37
2023-02-22T19:06:50.892Z,38.73
2023-02-22T19:08:53.674Z,40.13
2023-02-22T19:10:55.831Z,27.87
2023-02-22T19:12:57.944Z,50.33
2023-02-22T19:15:00.145Z,57.20
2023-02-22T19:17:02.954Z,39.53
2023-02-22T19:19:05.800Z,36.20
2023-02-22T19:21:10.890Z,50.25
2023-02-22T19:23:12.973Z,71.03
2023-02-22T19:25:15.176Z,81.43
2023-02-22T19:27:17.628Z,93.10
2023-02-22T19:29:23.744Z,87.63
2023-02-22T19:31:31.586Z,66.60
2023-02-22T19:33:33.619Z,60.70
2023-02-22T19:35:36.358Z,73.73
2023-02-22T19:37:38.366Z,71.97
2023-02-22T19:39:42.461Z,56.90
2023-02-22T19:41:44.800Z,48.53
2023-02-22T19:43:48.667Z,48.63
2023-02-22T19:45:50.740Z,46.60
2023-02-22T19:47:56.062Z,46.67
2023-02-22T19:49:59.797Z,85.53
2023-02-22T19:52:08.349Z,71.97
2023-02-22T19:54:17.441Z,55.10
2023-02-22T19:56:27.292Z,50.50
2023-02-22T19:58:32.316Z,46.07
2023-02-22T20:00:35.750Z,40.87
2023-02-22T20:02:41.895Z,33.73
2023-02-22T20:04:43.998Z,33.13
2023-02-22T20:06:47.450Z,41.97
2023-02-22T20:08:51.152Z,39.47
2023-02-22T20:10:58.354Z,41.13
2023-02-22T20:13:01.439Z,31.03
2023-02-22T20:15:03.548Z,29.07
2023-02-22T20:17:07.335Z,33.57
2023-02-22T20:19:09.292Z,41.57
2023-02-22T20:21:18.721Z,60.87
2023-02-22T20:23:20.982Z,103.10
2023-02-22T20:25:23.107Z,60.23
2023-02-22T20:27:25.093Z,51.47
2023-02-22T20:29:30.280Z,34.47
2023-02-22T20:31:33.117Z,36.40
2023-02-22T20:33:41.802Z,43.63
2023-02-22T20:35:44.092Z,35.70
2023-02-22T20:37:46.010Z,49.57
2023-02-22T20:39:48.122Z,41.17
2023-02-22T20:41:50.309Z,36.07
2023-02-22T20:43:53.662Z,65.20
2023-02-22T20:45:55.859Z,51.60
2023-02-22T20:48:00.144Z,42.47
2023-02-22T20:50:02.323Z,37.40
2023-02-22T20:52:05.072Z,34.20
2023-02-22T20:54:08.735Z,33.83
2023-02-22T20:56:16.143Z,36.47
2023-02-22T20:58:23.212Z,46.30
2023-02-22T21:00:26.642Z,47.67
2023-02-22T21:02:30.435Z,46.50
2023-02-22T21:04:33.412Z,118.17
2023-02-22T21:06:36.914Z,106.30
2023-02-22T21:08:38.757Z,128.00
2023-02-22T21:10:42.580Z,110.60
2023-02-22T21:12:47.941Z,106.97
2023-02-22T21:14:50.099Z,134.77
2023-02-22T21:16:52.796Z,141.20
2023-02-22T21:18:58.894Z,128.43
2023-02-22T21:21:12.607Z,119.27
2023-02-22T21:23:15.998Z,122.37
2023-02-22T21:25:18.502Z,128.70
2023-02-22T21:27:20.775Z,127.90
2023-02-22T21:29:23.073Z,120.43
2023-02-22T21:31:25.393Z,120.57
2023-02-22T21:33:28.948Z,106.20
2023-02-22T21:35:35.363Z,75.10
2023-02-22T21:37:40.341Z,68.73
2023-02-22T21:39:47.790Z,74.80
2023-02-22T21:41:52.331Z,68.73
2023-02-22T21:43:55.636Z,51.43
2023-02-22T21:46:03.030Z,49.67
2023-02-22T21:48:05.926Z,51.00
2023-02-22T21:50:10.370Z,46.93
2023-02-22T21:52:12.341Z,46.83
2023-02-22T21:54:17.047Z,41.43
2023-02-22T21:56:24.443Z,48.67
2023-02-22T21:58:28.212Z,53.73
2023-02-22T22:00:31.196Z,58.20
2023-02-22T22:02:33.359Z,43.07
2023-02-22T22:04:35.346Z,45.07
2023-02-22T22:06:37.626Z,44.40
2023-02-22T22:08:42.055Z,39.23
2023-02-22T22:10:44.031Z,40.27
2023-02-22T22:12:46.271Z,44.73
2023-02-22T22:14:50.396Z,38.70
2023-02-22T22:16:58.443Z,41.37
2023-02-22T22:19:00.600Z,47.90
2023-02-22T22:21:10.964Z,48.50
2023-02-22T22:23:12.961Z,49.73
2023-02-22T22:25:19.079Z,54.63
2023-02-22T22:27:21.395Z,67.33
2023-02-22T22:29:26.686Z,52.30
2023-02-22T22:31:29.229Z,58.33
2023-02-22T22:33:31.334Z,56.20
2023-02-22T22:35:33.690Z,59.87
2023-02-22T22:37:35.795Z,49.30
2023-02-22T22:39:38.698Z,42.60
2023-02-22T22:41:44.935Z,40.70
2023-02-22T22:43:47.281Z,41.57
2023-02-22T22:45:49.332Z,41.67
2023-02-22T22:47:52.279Z,47.60
2023-02-22T22:50:01.505Z,44.90
2023-02-22T22:52:03.499Z,47.43
2023-02-22T22:54:10.309Z,51.23
2023-02-22T22:56:21.198Z,53.13
2023-02-22T22:58:24.180Z,52.10
2023-02-22T23:00:37.722Z,74.00
2023-02-22T23:02:40.790Z,74.37
2023-02-22T23:04:42.725Z,79.90
2023-02-22T23:06:47.136Z,91.90
2023-02-22T23:09:00.155Z,75.80
2023-02-22T23:11:09.497Z,64.30
2023-02-22T23:13:12.824Z,57.13
2023-02-22T23:15:14.794Z,63.43
2023-02-22T23:17:31.197Z,60.67
2023-02-22T23:19:35.838Z,61.87
2023-02-22T23:21:39.115Z,68.57
2023-02-22T23:23:41.559Z,60.20
2023-02-22T23:25:49.756Z,52.20
2023-02-22T23:27:53.735Z,61.60
2023-02-22T23:29:56.041Z,53.17
2023-02-22T23:31:59.168Z,52.77
2023-02-22T23:34:06.698Z,53.10
2023-02-22T23:36:10.630Z,47.83
2023-02-22T23:38:12.688Z,43.67
2023-02-22T23:40:18.932Z,46.53
2023-02-22T23:42:23.085Z,65.43
2023-02-22T23:44:27.356Z,62.17
2023-02-22T23:46:33.029Z,49.23
2023-02-22T23:48:35.861Z,42.40
2023-02-22T23:50:37.820Z,47.43
2023-02-22T23:52:39.938Z,44.40
2023-02-22T23:54:44.216Z,41.43
2023-02-22T23:57:02.567Z,48.60
2023-02-22T23:59:11.434Z,44.17
